Detalii statie AFILIU TRANS MIZIL [00001982]

Toti senzorii

Date Temperatura solului [C]Precipitatii [mm]Voltaj baterie [mV]Leaf Wetness [Min]HC Air temperature [C]HC Relative humidity [%]Punctul de roua [C]
medieminmaxsumaultimatimpmedieminmaxmediemediemin
2019-08-15 20:00:00 0 7060 20.16 19.42 20.92 57.4 11.2 11.1
2019-08-15 21:00:00 0 7040 18.76 18.28 19.34 61.7 11 10.9
2019-08-15 22:00:00 0 7010 17.86 17.66 18.21 64.53 10.9 10.8
2019-08-15 23:00:00 0 6972 17.72 17.62 17.86 64.76 10.8 10.7
2019-08-16 00:00:00 0 6952 17.79 17.61 18.03 64.04 10.7 10.6
2019-08-16 01:00:00 0 6922 18.06 17.99 18.19 62.22 10.5 10.4
2019-08-16 02:00:00 0 6894 17.91 17.71 17.98 63.5 10.7 10.5
2019-08-16 03:00:00 0 6874 17.66 17.34 17.87 65.57 11 10.7
2019-08-16 04:00:00 0 6864 17.39 17.13 17.8 66.88 11 10.7
2019-08-16 05:00:00 0 6834 17.48 17.37 17.68 64 10.4 10.3
2019-08-16 06:00:00 0 6826 17.07 16.81 17.46 66.25 10.5 10.4
2019-08-16 07:00:00 0 6904 17.54 17.35 17.95 67.25 11.2 10.8
2019-08-16 08:00:00 0 7166 19.3 18.24 19.8 62.6 11.8 11.3
2019-08-16 09:00:00 0 7226 20.28 19.75 21.07 60.53 12.2 11.9
2019-08-16 10:00:00 0 7216 20.81 20.22 21.37 56.94 11.8 11.3
2019-08-16 11:00:00 0 7226 21.02 20.6 21.64 55.87 11.6 11.2
2019-08-16 12:00:00 0 7216 22.67 21.66 24.04 51.33 11.9 11
2019-08-16 13:00:00 0 7216 23.9 22.79 25.14 48.98 12.3 10.9
2019-08-16 14:00:00 0 7216 24.53 23.39 26.24 45.87 11.9 10.8
2019-08-16 15:00:00 0 7216 26.32 25.42 27.28 42.73 12.4 11.9
2019-08-16 16:00:00 0 7226 25.58 24.53 27.27 43.68 12 11.6
2019-08-16 17:00:00 0 7216 24.98 23.81 26.51 45.2 12 11.1
2019-08-16 18:00:00 0 7226 22.84 22.38 23.87 53.71 12.7 12.4
2019-08-16 19:00:00 0 7108 21.78 21.26 22.21 58.04 13 12.7
2019-08-16 20:00:00 0 7030 20.11 19.48 21.03 63.28 12.7 12.2
2019-08-16 21:00:00 0 6992 19.46 19.2 19.8 62.57 11.9 11.6
2019-08-16 22:00:00 0 6962 17.22 16.57 18.6 85.47 14.5 12.6
2019-08-16 23:00:00 0 6932 16.87 16.64 17.13 95.65 16 15.8
2019-08-17 00:00:00 0 6914 16.83 16.67 16.94 94.94 15.8 15.6
2019-08-17 01:00:00 0 6874 16.82 16.71 16.91 98.25 16.4 16.2
2019-08-17 02:00:00 0 6854 16.42 16.18 16.8 99.98 16.3 16.1
2019-08-17 03:00:00 0 6834 15.97 15.67 16.25 100 15.9 15.6
2019-08-17 04:00:00 0 6834 15.82 15.63 16.01 100 15.7 15.6
2019-08-17 05:00:00 0 6816 15.53 15.3 15.77 100 15.5 15.3
2019-08-17 06:00:00 0 6796 15.47 15.28 15.88 100 15.4 15.2
2019-08-17 07:00:00 0 6884 16.46 15.93 17.39 100 16.4 15.9
2019-08-17 08:00:00 0 7158 17.93 17.07 19.66 98.91 17.6 17
2019-08-17 09:00:00 0 7216 22.69 20.17 24.08 58.81 13.8 11.9
2019-08-17 10:00:00 0 7216 24.63 23.97 25.11 42.42 10.7 9.4
2019-08-17 11:00:00 0 7216 25.82 25.38 26.4 38.1 10.2 9.8
2019-08-17 12:00:00 0 7216 26.09 24.98 27.46 36.83 10 8.9
2019-08-17 13:00:00 0 7216 24.31 23.75 25.34 40.55 9.7 8.6
2019-08-17 14:00:00 0 7216 26.83 24.7 28.35 36.96 10.6 9.9
2019-08-17 15:00:00 0 7216 27.88 26.83 29.01 31.64 9.1 8.1
2019-08-17 16:00:00 0 7206 25.53 25.3 25.96 37 9.5 8.4
2019-08-17 17:00:00 0 7216 26.46 24.8 27.59 36.84 10.2 9.3
2019-08-17 18:00:00 0 7216 26.01 25.03 27.19 35.5 9.3 8.9
2019-08-17 19:00:00 0 7158 24.16 22.17 25.11 41.37 10 9.3